Time;durP1;ratioP1;P1;durP2;ratioP2;P2;SDS_P1;SDS_P2;PMS_P1;PMS_P2;Temp;Humidity;BMP_temperature;BMP_pressure;BME280_temperature;BME280_humidity;BME280_pressure;Samples;Min_cycle;Max_cycle;Signal;HPM_P1;HPM_P2
2022/11/05 00:09:28;;;;;;;5.75;3.03;;;6.10;99.90;;;;;;5141320;27;20049;-71
2022/11/05 00:10:45;;;;;;;5.03;2.90;;;6.10;99.90;;;;;;5150820;27;20054;-71
2022/11/05 00:18:39;;;;;;;4.50;2.78;;;5.90;99.90;;;;;;5133323;27;20055;-71
2022/11/05 00:25:12;;;;;;;4.78;2.70;;;6.60;99.90;;;;;;5149758;27;20043;-71
2022/11/05 00:26:34;;;;;;;4.05;2.50;;;5.80;99.90;;;;;;5143727;27;20057;-71
2022/11/05 00:29:00;;;;;;;3.55;2.72;;;5.70;99.90;;;;;;5146517;27;20450;-71
2022/11/05 00:31:26;;;;;;;4.88;2.70;;;6.00;99.90;;;;;;5138092;27;20046;-71
2022/11/05 00:33:51;;;;;;;5.90;2.60;;;6.10;99.90;;;;;;5153649;27;20046;-71
2022/11/05 00:36:17;;;;;;;5.13;2.80;;;5.70;99.90;;;;;;5153340;27;20483;-71
2022/11/05 00:38:43;;;;;;;4.57;2.58;;;5.70;99.90;;;;;;5146760;27;20031;-71
2022/11/05 00:41:08;;;;;;;5.35;2.67;;;5.60;99.90;;;;;;5138756;27;20495;-71
2022/11/05 00:46:18;;;;;;;4.70;2.28;;;5.80;99.90;;;;;;5134664;27;20453;-71
2022/11/05 00:51:28;;;;;;;4.50;2.33;;;6.20;99.90;;;;;;5153357;27;20047;-71
2022/11/05 00:53:54;;;;;;;4.90;2.40;;;5.60;99.90;;;;;;5140230;27;20049;-71
2022/11/05 00:56:20;;;;;;;4.32;2.20;;;5.70;99.90;;;;;;5152585;27;20050;-71
2022/11/05 00:58:45;;;;;;;4.30;2.70;;;5.80;99.90;;;;;;5139312;27;20047;-71
2022/11/05 01:01:11;;;;;;;7.35;3.10;;;5.90;99.90;;;;;;5145752;27;20039;-71
2022/11/05 01:03:38;;;;;;;4.82;2.83;;;5.90;99.90;;;;;;5146801;27;20035;-71
2022/11/05 01:06:06;;;;;;;8.80;2.78;;;6.00;99.90;;;;;;5147622;27;20051;-71
2022/11/05 01:08:31;;;;;;;3.67;2.67;;;6.00;99.90;;;;;;5148601;27;20046;-70
2022/11/05 01:10:57;;;;;;;11.57;5.35;;;6.10;99.90;;;;;;5133132;27;20461;-70
2022/11/05 01:13:29;;;;;;;5.65;2.78;;;6.70;99.90;;;;;;5133355;27;20051;-70
2022/11/05 01:15:55;;;;;;;4.53;2.20;;;6.60;99.90;;;;;;5153047;27;20066;-70
2022/11/05 01:18:23;;;;;;;4.35;2.30;;;6.10;99.90;;;;;;5147962;27;20034;-70
2022/11/05 01:20:49;;;;;;;3.67;2.55;;;6.10;99.90;;;;;;5152767;27;20043;-70
2022/11/05 01:23:15;;;;;;;6.90;3.00;;;6.60;99.90;;;;;;5144174;27;20365;-71
2022/11/05 01:25:41;;;;;;;4.72;2.40;;;7.00;99.90;;;;;;5143659;27;20055;-70
2022/11/05 01:28:08;;;;;;;5.00;2.00;;;6.20;99.90;;;;;;5138569;27;20047;-71
2022/11/05 01:30:35;;;;;;;6.82;2.63;;;6.10;99.90;;;;;;5145751;27;20050;-71
2022/11/05 01:33:02;;;;;;;4.50;2.30;;;6.50;99.90;;;;;;5136286;27;20051;-71
2022/11/05 01:35:28;;;;;;;3.80;2.25;;;6.80;99.90;;;;;;5135448;27;20050;-71
2022/11/05 01:37:54;;;;;;;3.70;1.98;;;6.10;99.90;;;;;;5139021;27;20067;-71
2022/11/05 01:40:21;;;;;;;3.90;2.20;;;6.20;99.90;;;;;;5144555;27;20042;-71
2022/11/05 01:42:48;;;;;;;4.57;2.10;;;6.10;99.90;;;;;;5152200;27;20058;-71
2022/11/05 01:45:16;;;;;;;4.00;2.20;;;6.00;99.90;;;;;;5138892;27;20485;-71
2022/11/05 01:47:47;;;;;;;5.18;2.40;;;6.00;99.90;;;;;;5136437;27;20047;-71
2022/11/05 01:50:32;;;;;;;5.55;2.35;;;6.00;99.90;;;;;;5151043;27;20050;-71
2022/11/05 01:53:04;;;;;;;3.78;1.98;;;5.90;99.90;;;;;;5152463;27;20176;-71
2022/11/05 01:55:39;;;;;;;3.17;1.90;;;5.90;99.90;;;;;;5118449;28;20052;-70
2022/11/05 01:58:08;;;;;;;3.47;2.13;;;5.80;99.90;;;;;;5134107;27;20055;-71
2022/11/05 02:00:35;;;;;;;3.88;1.73;;;5.80;99.90;;;;;;5140231;27;20156;-70
2022/11/05 02:03:01;;;;;;;3.97;2.17;;;5.90;99.90;;;;;;5148237;27;20118;-71
2022/11/05 02:05:27;;;;;;;3.45;1.92;;;5.80;99.90;;;;;;5149657;27;20039;-71
2022/11/05 02:07:54;;;;;;;3.00;1.90;;;5.70;99.90;;;;;;5138884;27;20117;-71
2022/11/05 02:10:20;;;;;;;4.72;2.22;;;6.10;99.90;;;;;;5139692;27;20185;-71
2022/11/05 02:12:49;;;;;;;4.03;2.45;;;5.60;99.90;;;;;;5144467;27;20054;-71
2022/11/05 02:15:23;;;;;;;5.07;2.05;;;5.50;99.90;;;;;;5147331;27;20047;-70
2022/11/05 02:18:17;;;;;;;2.97;1.80;;;5.40;99.90;;;;;;5146344;27;20061;-71
2022/11/05 02:21:07;;;;;;;3.60;2.13;;;5.40;99.90;;;;;;5152197;27;20055;-70
2022/11/05 02:24:11;;;;;;;4.22;2.00;;;5.40;99.90;;;;;;5152355;27;20043;-70
2022/11/05 02:27:05;;;;;;;4.80;2.22;;;5.40;99.90;;;;;;5120341;27;20460;-70
2022/11/05 02:29:49;;;;;;;3.58;2.00;;;5.50;99.90;;;;;;5151723;27;20131;-70
2022/11/05 02:32:42;;;;;;;4.53;2.70;;;5.50;99.90;;;;;;5152147;27;20107;-70
2022/11/05 02:35:20;;;;;;;6.13;2.97;;;5.50;99.90;;;;;;5116752;28;20051;-70
2022/11/05 02:37:59;;;;;;;7.03;4.03;;;5.40;99.90;;;;;;5122584;28;20047;-70
2022/11/05 02:40:35;;;;;;;6.65;3.67;;;5.40;99.90;;;;;;5129783;27;20047;-71
2022/11/05 02:43:34;;;;;;;8.30;4.63;;;5.40;99.90;;;;;;5155392;27;20039;-70
2022/11/05 02:46:30;;;;;;;7.65;4.15;;;5.50;99.90;;;;;;5142295;27;20458;-70
2022/11/05 02:49:20;;;;;;;8.50;4.15;;;5.60;99.90;;;;;;5147659;27;20047;-70
2022/11/05 02:51:57;;;;;;;6.47;4.32;;;5.70;99.90;;;;;;5146640;27;20049;-70
2022/11/05 02:54:26;;;;;;;6.68;4.60;;;5.90;99.90;;;;;;5134779;27;20045;-70
2022/11/05 02:56:54;;;;;;;6.10;4.03;;;5.80;99.90;;;;;;5134729;27;20035;-70
2022/11/05 02:59:20;;;;;;;5.60;4.00;;;5.80;99.90;;;;;;5149800;27;20100;-70
2022/11/05 03:01:46;;;;;;;8.32;3.70;;;5.80;99.90;;;;;;5140288;27;20043;-70
2022/11/05 03:04:15;;;;;;;6.47;4.05;;;5.80;99.90;;;;;;5153587;27;20081;-70
2022/11/05 03:06:55;;;;;;;6.30;4.22;;;5.80;99.90;;;;;;5148722;27;20077;-70
2022/11/05 03:09:29;;;;;;;8.10;4.10;;;6.00;99.90;;;;;;5151455;27;20047;-70
2022/11/05 03:12:12;;;;;;;7.18;3.85;;;5.80;99.90;;;;;;5146413;27;20550;-70
2022/11/05 03:14:53;;;;;;;7.53;3.70;;;5.80;99.90;;;;;;5154975;27;20046;-70
2022/11/05 03:17:45;;;;;;;6.10;3.20;;;5.80;99.90;;;;;;5149610;27;20055;-70
2022/11/05 03:20:32;;;;;;;4.93;3.30;;;5.80;99.90;;;;;;5145298;27;20105;-71
2022/11/05 03:23:16;;;;;;;6.72;3.28;;;5.80;99.90;;;;;;5134173;27;20054;-71
2022/11/05 03:25:49;;;;;;;6.00;3.90;;;5.80;99.90;;;;;;5142768;27;20047;-71
2022/11/05 03:28:18;;;;;;;7.63;4.15;;;5.70;99.90;;;;;;5135170;27;20114;-71
2022/11/05 03:30:46;;;;;;;7.18;4.20;;;5.50;99.90;;;;;;5134052;27;20508;-71
2022/11/05 03:33:21;;;;;;;7.50;4.57;;;5.40;99.90;;;;;;5138022;27;20030;-70
2022/11/05 03:35:53;;;;;;;7.22;4.35;;;5.40;99.90;;;;;;5141531;27;20035;-70
2022/11/05 03:38:24;;;;;;;6.88;4.15;;;5.20;99.90;;;;;;5149382;27;20047;-70
2022/11/05 03:40:54;;;;;;;6.07;4.47;;;5.10;99.90;;;;;;5150063;27;20051;-70
2022/11/05 03:43:23;;;;;;;6.05;3.88;;;5.50;99.90;;;;;;5148114;27;20518;-70
2022/11/05 03:45:58;;;;;;;6.50;4.15;;;4.90;99.90;;;;;;5134030;27;20039;-70
2022/11/05 03:48:26;;;;;;;6.03;3.90;;;4.90;99.90;;;;;;5135102;27;20043;-70
2022/11/05 03:51:01;;;;;;;6.35;4.03;;;5.00;99.90;;;;;;5134986;27;20050;-70
2022/11/05 03:53:35;;;;;;;5.20;3.72;;;5.00;99.90;;;;;;5140717;27;20042;-70
2022/11/05 03:56:34;;;;;;;7.43;4.07;;;5.00;99.90;;;;;;5146440;27;20435;-70
2022/11/05 03:59:01;;;;;;;5.07;3.30;;;5.00;99.90;;;;;;5117501;27;20111;-70
2022/11/05 04:01:28;;;;;;;6.97;4.00;;;5.10;99.90;;;;;;5142982;27;20114;-70
2022/11/05 04:03:54;;;;;;;6.50;3.33;;;5.10;99.90;;;;;;5144274;27;20395;-70
2022/11/05 04:14:33;;;;;;;4.47;2.60;;;5.20;99.90;;;;;;5153001;27;20095;-70
2022/11/05 04:17:10;;;;;;;4.50;2.60;;;5.40;99.90;;;;;;5126181;27;20047;-70
2022/11/05 04:25:15;;;;;;;;;;;5.60;99.90;;;;;;5137276;27;20134;-71
2022/11/05 04:27:41;;;;;;;6.65;2.88;;;5.40;99.90;;;;;;5145732;27;19942;-71
2022/11/05 04:30:20;;;;;;;7.15;2.80;;;5.40;99.90;;;;;;5140866;27;20484;-70
2022/11/05 04:33:04;;;;;;;5.28;2.78;;;5.40;99.90;;;;;;5139652;27;20115;-71
2022/11/05 04:35:31;;;;;;;7.60;3.05;;;5.40;99.90;;;;;;5153702;27;20153;-71
2022/11/05 04:37:57;;;;;;;5.60;2.40;;;5.90;99.90;;;;;;5119748;27;20510;-71
2022/11/05 04:40:23;;;;;;;5.43;3.10;;;5.80;99.90;;;;;;5147388;27;20046;-71
2022/11/05 04:42:48;;;;;;;5.53;2.67;;;5.30;99.90;;;;;;5146443;27;20039;-71
2022/11/05 04:45:14;;;;;;;5.80;2.85;;;5.30;99.90;;;;;;5137424;27;20399;-71
2022/11/05 04:47:40;;;;;;;5.05;2.38;;;5.20;99.90;;;;;;5150001;27;20050;-70
2022/11/05 04:50:06;;;;;;;4.50;2.40;;;5.20;99.90;;;;;;5133873;27;20502;-70
2022/11/05 04:52:31;;;;;;;4.10;2.40;;;5.20;99.90;;;;;;5148526;27;20488;-70
2022/11/05 04:54:57;;;;;;;4.03;2.40;;;5.20;99.90;;;;;;5134631;27;20051;-70
2022/11/05 04:57:22;;;;;;;5.10;2.58;;;6.10;99.90;;;;;;5152971;27;20039;-71
2022/11/05 04:59:50;;;;;;;3.70;2.30;;;5.10;99.90;;;;;;5103300;27;20043;-70
2022/11/05 05:02:16;;;;;;;3.95;2.47;;;5.00;99.90;;;;;;5142253;27;20051;-71
2022/11/05 05:04:42;;;;;;;3.67;2.20;;;5.50;99.90;;;;;;5136859;27;20395;-71
2022/11/05 05:07:07;;;;;;;4.75;2.40;;;5.30;99.90;;;;;;5137713;27;20051;-70
2022/11/05 05:09:33;;;;;;;3.15;2.20;;;5.40;99.90;;;;;;5116873;27;20119;-71
2022/11/05 05:12:00;;;;;;;3.78;2.20;;;5.00;99.90;;;;;;5127943;27;20067;-71
2022/11/05 05:14:25;;;;;;;4.40;2.30;;;5.20;99.90;;;;;;5151654;27;20095;-71
2022/11/05 05:16:51;;;;;;;2.95;2.08;;;5.20;99.90;;;;;;5152977;27;20099;-71
2022/11/05 05:19:17;;;;;;;3.20;2.00;;;5.30;99.90;;;;;;5152787;27;20046;-70
2022/11/05 05:21:42;;;;;;;5.82;2.15;;;5.00;99.90;;;;;;5153032;27;20046;-70
2022/11/05 05:24:15;;;;;;;4.03;2.10;;;5.10;99.90;;;;;;5151165;27;20038;-71
2022/11/05 05:26:45;;;;;;;4.32;2.03;;;5.00;99.90;;;;;;5132132;27;20075;-70
2022/11/05 05:29:11;;;;;;;3.28;1.80;;;5.00;99.90;;;;;;5134822;27;20051;-71
2022/11/05 05:31:37;;;;;;;5.00;2.00;;;5.00;99.90;;;;;;5136456;27;20110;-70
2022/11/05 05:34:04;;;;;;;5.25;2.22;;;5.20;99.90;;;;;;5152734;27;20031;-71
2022/11/05 05:36:30;;;;;;;3.97;2.13;;;5.00;99.90;;;;;;5144217;27;20050;-70
2022/11/05 05:38:56;;;;;;;3.78;2.47;;;5.00;99.90;;;;;;5113805;28;20054;-71
2022/11/05 05:41:22;;;;;;;3.30;1.92;;;5.20;99.90;;;;;;5118331;28;20395;-70
2022/11/05 05:43:48;;;;;;;4.07;2.60;;;5.10;99.90;;;;;;5146096;27;20116;-71
2022/11/05 05:46:15;;;;;;;4.68;2.97;;;5.00;99.90;;;;;;5144067;27;20487;-71
2022/11/05 05:48:42;;;;;;;4.28;2.03;;;5.00;99.90;;;;;;5113462;27;20074;-71
2022/11/05 05:51:10;;;;;;;4.03;2.40;;;4.90;99.90;;;;;;5135899;27;20050;-71
2022/11/05 05:53:36;;;;;;;5.07;2.63;;;5.20;99.90;;;;;;5152733;27;20372;-71
2022/11/05 05:56:03;;;;;;;3.53;2.53;;;5.00;99.90;;;;;;5145463;27;20046;-70
2022/11/05 05:58:33;;;;;;;3.92;2.50;;;5.00;99.90;;;;;;5134235;27;20099;-70
2022/11/05 06:01:01;;;;;;;4.28;2.40;;;5.00;99.90;;;;;;5141432;27;20209;-70
2022/11/05 06:03:27;;;;;;;4.75;2.75;;;5.10;99.90;;;;;;5152243;27;20042;-70
2022/11/05 06:05:52;;;;;;;7.18;2.90;;;5.20;99.90;;;;;;5139139;27;20521;-71
2022/11/05 06:08:18;;;;;;;4.47;2.72;;;5.70;99.90;;;;;;5150923;27;20051;-71
2022/11/05 06:10:50;;;;;;;4.03;2.50;;;5.60;99.90;;;;;;5083814;28;20071;-71
2022/11/05 06:13:16;;;;;;;6.22;3.30;;;5.20;99.90;;;;;;5143741;27;20467;-71
2022/11/05 06:15:41;;;;;;;6.53;3.45;;;5.30;99.90;;;;;;5153839;27;20053;-71
2022/11/05 06:18:07;;;;;;;4.20;2.35;;;5.50;99.90;;;;;;5152495;27;20050;-71
2022/11/05 06:20:33;;;;;;;3.72;2.42;;;5.50;99.90;;;;;;5139953;27;20086;-71
2022/11/05 06:22:58;;;;;;;5.40;3.17;;;5.20;99.90;;;;;;5140457;27;20042;-71
2022/11/05 06:25:25;;;;;;;4.85;2.75;;;5.80;99.90;;;;;;5131348;27;20050;-71
2022/11/05 06:27:51;;;;;;;4.10;2.72;;;5.20;99.90;;;;;;5137352;27;20057;-63
2022/11/05 06:30:17;;;;;;;4.35;2.17;;;5.60;99.90;;;;;;5152109;27;20077;-63
2022/11/05 06:32:43;;;;;;;4.15;2.85;;;5.10;99.90;;;;;;5148420;27;20559;-63
2022/11/05 06:35:09;;;;;;;3.05;2.28;;;5.00;99.90;;;;;;5137596;27;20131;-63
2022/11/05 06:37:35;;;;;;;5.45;2.42;;;5.10;99.90;;;;;;5152457;27;20137;-63
2022/11/05 06:40:00;;;;;;;5.63;2.53;;;4.90;99.90;;;;;;5155596;27;20039;-63
2022/11/05 06:42:26;;;;;;;3.25;2.22;;;4.90;99.90;;;;;;5155063;27;20467;-63
2022/11/05 06:44:52;;;;;;;4.68;3.20;;;5.10;99.90;;;;;;5144209;27;20064;-64
2022/11/05 06:47:18;;;;;;;5.22;2.67;;;5.50;99.90;;;;;;5150253;27;20407;-63
2022/11/05 06:49:45;;;;;;;7.18;2.90;;;4.90;99.90;;;;;;5154253;27;20047;-63
2022/11/05 06:52:12;;;;;;;4.93;2.97;;;5.00;99.90;;;;;;5148950;27;20047;-63
2022/11/05 06:54:38;;;;;;;4.85;2.50;;;4.90;99.90;;;;;;5155575;27;20049;-63
2022/11/05 06:57:05;;;;;;;5.35;2.63;;;5.00;99.90;;;;;;5118817;27;20444;-63
2022/11/05 06:59:30;;;;;;;5.13;2.75;;;5.20;99.90;;;;;;5154224;27;20517;-64
2022/11/05 07:01:56;;;;;;;5.68;2.80;;;5.00;99.90;;;;;;5140693;27;20094;-64
2022/11/05 07:04:22;;;;;;;3.65;2.40;;;5.10;99.90;;;;;;5151314;27;20451;-63
2022/11/05 07:06:47;;;;;;;4.97;3.08;;;5.20;99.90;;;;;;5142163;27;20089;-63
2022/11/05 07:09:14;;;;;;;6.40;2.60;;;5.10;99.90;;;;;;5151044;27;20051;-64
2022/11/05 07:11:39;;;;;;;5.63;3.00;;;5.20;99.90;;;;;;5146990;27;20468;-64
2022/11/05 07:14:05;;;;;;;5.15;2.75;;;5.30;99.90;;;;;;5133836;27;20117;-63
2022/11/05 07:16:31;;;;;;;4.25;2.70;;;5.20;99.90;;;;;;5146461;27;20050;-63
2022/11/05 07:18:56;;;;;;;4.22;2.42;;;5.20;99.90;;;;;;5151503;27;20042;-64
2022/11/05 07:21:22;;;;;;;5.95;2.83;;;5.30;99.90;;;;;;5154573;27;20047;-63
2022/11/05 07:23:48;;;;;;;7.88;2.90;;;5.30;99.90;;;;;;5153808;27;20131;-63
2022/11/05 07:26:13;;;;;;;4.32;2.53;;;5.40;99.90;;;;;;5135095;27;20109;-64
2022/11/05 07:28:39;;;;;;;3.80;2.60;;;5.40;99.90;;;;;;5136791;27;20038;-63
2022/11/05 07:31:05;;;;;;;6.20;3.50;;;5.40;99.90;;;;;;5154083;27;20042;-63
2022/11/05 07:33:30;;;;;;;4.40;2.63;;;5.40;99.90;;;;;;5153261;27;20554;-63
2022/11/05 07:35:56;;;;;;;5.65;2.88;;;5.40;99.90;;;;;;5148211;27;20034;-62
2022/11/05 07:38:22;;;;;;;5.72;3.00;;;5.50;99.90;;;;;;5154213;27;20475;-62
2022/11/05 07:40:48;;;;;;;5.03;3.13;;;5.50;99.90;;;;;;5146607;27;20050;-63
2022/11/05 07:43:14;;;;;;;4.93;3.10;;;5.60;99.90;;;;;;5151184;27;20039;-63
2022/11/05 07:45:39;;;;;;;4.90;3.20;;;5.90;99.90;;;;;;5154577;27;20050;-64
2022/11/05 07:48:05;;;;;;;6.47;3.30;;;5.60;99.90;;;;;;5154278;27;20046;-63
2022/11/05 07:50:34;;;;;;;5.20;3.13;;;5.70;99.90;;;;;;5154146;27;20118;-63
2022/11/05 07:53:05;;;;;;;5.07;3.03;;;5.70;99.90;;;;;;5138235;27;20098;-64
2022/11/05 07:55:31;;;;;;;6.18;3.40;;;5.80;99.90;;;;;;5145123;27;20067;-63
2022/11/05 07:57:57;;;;;;;6.50;3.10;;;5.90;99.90;;;;;;5152523;27;20070;-64
2022/11/05 08:00:24;;;;;;;6.05;3.10;;;6.00;99.90;;;;;;5153163;27;20096;-63
2022/11/05 08:03:05;;;;;;;4.65;3.28;;;6.00;99.90;;;;;;5152600;27;20097;-63
2022/11/05 08:05:38;;;;;;;4.97;3.33;;;6.20;99.90;;;;;;5149862;27;20492;-63
2022/11/05 08:08:06;;;;;;;5.38;3.80;;;6.20;99.90;;;;;;5152023;27;20111;-63
2022/11/05 08:10:32;;;;;;;7.00;3.47;;;6.30;99.90;;;;;;5152495;27;20588;-63
2022/11/05 08:12:58;;;;;;;5.70;3.63;;;6.60;99.90;;;;;;5152523;27;20054;-63
2022/11/05 08:15:24;;;;;;;5.32;3.05;;;6.40;99.90;;;;;;5153057;27;20054;-63
2022/11/05 08:17:57;;;;;;;4.20;3.08;;;6.50;99.90;;;;;;5153409;27;20051;-63
2022/11/05 08:20:23;;;;;;;4.78;3.20;;;6.60;99.90;;;;;;5153723;27;20054;-63
2022/11/05 08:22:48;;;;;;;5.07;3.55;;;6.60;99.90;;;;;;5153250;27;20050;-63
2022/11/05 08:25:14;;;;;;;5.13;3.38;;;6.70;99.90;;;;;;5153793;27;20039;-63
2022/11/05 08:27:40;;;;;;;7.38;3.70;;;6.70;99.90;;;;;;5152940;27;20067;-63
2022/11/05 08:30:07;;;;;;;4.93;3.65;;;6.90;99.90;;;;;;5135280;27;20313;-63
2022/11/05 08:32:32;;;;;;;5.63;4.07;;;6.90;99.90;;;;;;5153760;27;20074;-63
2022/11/05 08:34:58;;;;;;;5.32;4.03;;;7.00;99.90;;;;;;5153938;27;20479;-63
2022/11/05 08:37:24;;;;;;;6.55;4.20;;;7.10;99.90;;;;;;5135232;27;20095;-63
2022/11/05 08:39:49;;;;;;;5.07;3.50;;;7.10;99.90;;;;;;5153526;27;20494;-63
2022/11/05 08:42:15;;;;;;;8.70;3.92;;;7.20;99.90;;;;;;5153409;27;20049;-63
2022/11/05 08:44:41;;;;;;;6.85;4.50;;;7.30;99.90;;;;;;5153488;27;20042;-63
2022/11/05 08:47:06;;;;;;;4.60;3.55;;;7.40;99.90;;;;;;5153612;27;20050;-63
2022/11/05 08:49:32;;;;;;;4.85;3.70;;;7.50;99.90;;;;;;5153285;27;20407;-63
2022/11/05 08:51:58;;;;;;;5.18;3.55;;;7.60;99.90;;;;;;5153462;27;20500;-64
2022/11/05 08:54:23;;;;;;;5.90;3.58;;;7.80;99.90;;;;;;5153551;27;20122;-63
2022/11/05 08:56:49;;;;;;;5.70;3.65;;;7.80;99.90;;;;;;5134277;27;20049;-63
2022/11/05 08:59:15;;;;;;;5.15;3.30;;;7.90;99.90;;;;;;5153276;27;20386;-63
2022/11/05 09:01:41;;;;;;;4.75;3.80;;;8.00;99.90;;;;;;5152959;27;20091;-64
2022/11/05 09:04:08;;;;;;;4.00;3.35;;;8.10;99.90;;;;;;5153063;27;20047;-63
2022/11/05 09:06:33;;;;;;;5.32;3.28;;;8.20;99.90;;;;;;5153031;27;20054;-63
2022/11/05 09:08:59;;;;;;;5.93;3.15;;;8.30;99.90;;;;;;5153176;27;20046;-64
2022/11/05 09:11:25;;;;;;;4.88;3.17;;;8.40;99.90;;;;;;5153269;27;20054;-63
2022/11/05 09:13:51;;;;;;;4.70;3.70;;;8.40;99.90;;;;;;5152428;27;20038;-63
2022/11/05 09:16:24;;;;;;;5.00;3.30;;;8.40;99.90;;;;;;5153018;27;20095;-63
2022/11/05 09:18:49;;;;;;;5.15;3.47;;;8.40;99.90;;;;;;5153331;27;20043;-63
2022/11/05 09:21:17;;;;;;;3.80;2.97;;;8.50;99.90;;;;;;5152786;27;20133;-64
2022/11/05 09:23:43;;;;;;;5.40;3.67;;;8.50;99.90;;;;;;5153022;27;20047;-63
2022/11/05 09:26:10;;;;;;;5.10;3.63;;;8.50;99.90;;;;;;5152041;27;20430;-63
2022/11/05 09:28:36;;;;;;;4.30;3.33;;;8.60;99.90;;;;;;5134471;27;20058;-63
2022/11/05 09:31:06;;;;;;;4.30;3.15;;;8.70;99.90;;;;;;5153019;27;20417;-64
2022/11/05 09:33:33;;;;;;;4.68;3.17;;;8.70;99.90;;;;;;5152933;27;20051;-64
2022/11/05 09:35:59;;;;;;;6.95;3.72;;;8.80;99.90;;;;;;5152867;27;20053;-63
2022/11/05 09:38:25;;;;;;;3.53;2.80;;;9.10;99.90;;;;;;5152751;27;20038;-63
2022/11/05 09:41:01;;;;;;;4.78;2.67;;;9.40;99.90;;;;;;5153133;27;20128;-63
2022/11/05 09:43:42;;;;;;;4.25;2.80;;;9.80;99.90;;;;;;5152701;27;20035;-64
2022/11/05 09:46:19;;;;;;;5.15;2.47;;;10.10;99.90;;;;;;5152810;27;20053;-63
2022/11/05 09:48:48;;;;;;;4.00;2.70;;;10.40;99.90;;;;;;5156115;27;20039;-64
2022/11/05 09:51:15;;;;;;;4.28;2.50;;;10.50;99.90;;;;;;5156926;27;20043;-64
2022/11/05 09:53:42;;;;;;;3.47;2.42;;;10.30;99.90;;;;;;5156911;27;20129;-63
2022/11/05 09:56:39;;;;;;;3.72;2.50;;;10.50;99.90;;;;;;5156183;27;20486;-64
2022/11/05 09:59:21;;;;;;;3.83;2.55;;;10.70;99.90;;;;;;5135982;27;20430;-64
2022/11/05 10:01:47;;;;;;;5.72;2.63;;;10.40;99.90;;;;;;5156755;27;20087;-63
2022/11/05 10:04:19;;;;;;;3.28;2.28;;;10.30;99.90;;;;;;5156864;27;20042;-64
2022/11/05 10:06:57;;;;;;;4.65;2.65;;;10.60;99.90;;;;;;5156600;27;20042;-64
2022/11/05 10:09:35;;;;;;;4.68;2.88;;;11.00;99.90;;;;;;5156496;27;20047;-63
2022/11/05 10:12:12;;;;;;;3.38;2.25;;;11.40;99.90;;;;;;5156452;27;20098;-64
2022/11/05 10:14:44;;;;;;;3.45;2.20;;;11.70;99.90;;;;;;5138019;27;20054;-64
2022/11/05 10:17:13;;;;;;;3.80;2.22;;;11.80;99.90;;;;;;5156579;27;20443;-63
2022/11/05 10:19:45;;;;;;;4.45;2.45;;;12.00;99.90;;;;;;5138033;27;20042;-64
2022/11/05 10:22:15;;;;;;;4.00;1.90;;;12.10;99.90;;;;;;5156506;27;20054;-64
2022/11/05 10:24:43;;;;;;;3.80;2.20;;;12.20;99.90;;;;;;5156228;27;20051;-64
2022/11/05 10:27:37;;;;;;;2.70;1.95;;;12.30;99.90;;;;;;5155836;27;20047;-64
2022/11/05 10:30:04;;;;;;;4.47;2.30;;;12.30;99.90;;;;;;5155690;27;20137;-64
2022/11/05 10:32:38;;;;;;;3.20;2.17;;;12.40;99.90;;;;;;5156046;27;20175;-64
2022/11/05 10:35:06;;;;;;;3.47;2.10;;;12.40;99.90;;;;;;5156184;27;20159;-64
2022/11/05 10:37:32;;;;;;;2.92;2.00;;;12.20;99.90;;;;;;5137769;27;20478;-64
2022/11/05 10:39:59;;;;;;;3.17;2.03;;;12.00;99.90;;;;;;5155968;27;20050;-64
2022/11/05 10:42:24;;;;;;;3.75;2.20;;;11.90;99.90;;;;;;5155920;27;20049;-64
2022/11/05 10:45:08;;;;;;;4.28;2.33;;;11.90;99.90;;;;;;5155830;27;20121;-64
2022/11/05 10:47:48;;;;;;;2.88;1.63;;;12.10;99.90;;;;;;5155819;27;20046;-64
2022/11/05 10:50:21;;;;;;;2.97;1.75;;;12.30;99.90;;;;;;5155835;27;20050;-63
2022/11/05 10:52:50;;;;;;;4.18;2.20;;;12.10;99.90;;;;;;5155984;27;20438;-63
2022/11/05 10:55:37;;;;;;;3.20;2.00;;;11.70;99.90;;;;;;5120182;27;20139;-63
2022/11/05 10:58:14;;;;;;;3.75;1.90;;;11.40;99.90;;;;;;5155241;27;20039;-64
2022/11/05 11:00:43;;;;;;;4.00;2.00;;;11.40;99.90;;;;;;5154767;27;20071;-63
2022/11/05 11:03:36;;;;;;;3.45;2.03;;;11.50;99.90;;;;;;5155402;27;20082;-63
2022/11/05 11:06:23;;;;;;;3.88;2.00;;;11.50;99.90;;;;;;5155524;27;20054;-63
2022/11/05 11:08:51;;;;;;;2.70;1.70;;;11.40;99.90;;;;;;5154192;27;20410;-63
2022/11/05 11:11:35;;;;;;;3.65;2.10;;;11.40;99.90;;;;;;5155434;27;20058;-63
2022/11/05 11:14:04;;;;;;;3.15;2.00;;;11.30;99.90;;;;;;5136582;27;20054;-63
2022/11/05 11:16:39;;;;;;;3.30;2.00;;;11.20;99.90;;;;;;5155260;27;20045;-63
2022/11/05 11:19:25;;;;;;;3.15;2.00;;;11.10;99.90;;;;;;5155316;27;20058;-63
2022/11/05 11:22:02;;;;;;;3.90;2.10;;;11.00;99.90;;;;;;5155172;27;20043;-63
2022/11/05 11:24:38;;;;;;;3.25;1.88;;;11.00;99.90;;;;;;5154999;27;20062;-63
2022/11/05 11:27:08;;;;;;;;;;;11.00;99.90;;;;;;5154918;27;20583;-63
2022/11/05 11:29:38;;;;;;;4.90;2.70;;;11.00;99.90;;;;;;5155075;27;20397;-63
2022/11/05 11:32:17;;;;;;;3.38;2.30;;;11.00;99.90;;;;;;5155338;27;20153;-63
2022/11/05 11:34:44;;;;;;;4.15;2.10;;;11.10;99.90;;;;;;5155088;27;20078;-63
2022/11/05 11:37:14;;;;;;;3.20;2.13;;;11.10;99.90;;;;;;5154708;27;20047;-63
2022/11/05 11:39:45;;;;;;;4.15;2.47;;;11.10;99.90;;;;;;5154881;27;20130;-63
2022/11/05 11:42:32;;;;;;;4.80;2.60;;;11.20;99.90;;;;;;5154862;27;20053;-63
2022/11/05 11:45:04;;;;;;;3.65;2.20;;;11.30;99.90;;;;;;5154378;27;20448;-63
2022/11/05 11:47:31;;;;;;;3.20;2.08;;;11.30;99.90;;;;;;5154296;27;20125;-63
2022/11/05 11:49:59;;;;;;;2.45;2.03;;;11.40;99.90;;;;;;5154508;27;20487;-64
2022/11/05 11:52:36;;;;;;;3.83;2.17;;;11.40;99.90;;;;;;5154600;27;20047;-63
2022/11/05 11:55:10;;;;;;;3.58;2.10;;;11.30;99.90;;;;;;5135971;27;20045;-63
2022/11/05 11:57:51;;;;;;;4.10;2.88;;;11.40;99.90;;;;;;5154026;27;20038;-63
2022/11/05 12:00:20;;;;;;;3.42;2.00;;;11.40;99.90;;;;;;5154525;27;20098;-63
2022/11/05 12:03:03;;;;;;;5.88;2.50;;;11.50;99.90;;;;;;5154049;27;20486;-63
2022/11/05 12:05:47;;;;;;;3.75;2.22;;;11.50;99.90;;;;;;5154173;27;20106;-63
2022/11/05 12:08:15;;;;;;;3.53;2.22;;;11.30;99.90;;;;;;5154251;27;20063;-63
2022/11/05 12:10:53;;;;;;;4.00;2.22;;;11.30;99.90;;;;;;5154275;27;20055;-63
2022/11/05 12:13:27;;;;;;;4.13;2.33;;;11.30;99.90;;;;;;5154329;27;20045;-63
2022/11/05 12:16:17;;;;;;;5.13;2.35;;;11.20;99.90;;;;;;5153820;27;20487;-64
2022/11/05 12:19:10;;;;;;;5.78;2.85;;;11.20;99.90;;;;;;5154199;27;20043;-64
2022/11/05 12:21:45;;;;;;;4.60;2.20;;;11.20;99.90;;;;;;5153989;27;20391;-64
2022/11/05 12:24:22;;;;;;;3.00;2.20;;;11.20;99.90;;;;;;5153872;27;20047;-63
2022/11/05 12:27:26;;;;;;;3.80;2.30;;;11.10;99.90;;;;;;5153770;27;20062;-64
2022/11/05 12:30:01;;;;;;;4.22;2.60;;;11.10;99.90;;;;;;5104905;27;20444;-63
2022/11/05 12:33:13;;;;;;;4.60;2.33;;;11.10;99.90;;;;;;5154002;27;20100;-64
2022/11/05 12:36:05;;;;;;;3.72;2.25;;;11.10;99.90;;;;;;5153990;27;20042;-63
2022/11/05 12:38:49;;;;;;;3.65;2.53;;;11.20;99.90;;;;;;5104971;27;20059;-63
2022/11/05 12:41:17;;;;;;;4.00;2.70;;;11.20;99.90;;;;;;5153525;27;20094;-63
2022/11/05 12:43:59;;;;;;;4.43;2.63;;;11.10;99.90;;;;;;5153471;27;20042;-63
2022/11/05 12:46:25;;;;;;;4.07;2.58;;;11.20;99.90;;;;;;5153465;27;20050;-63
2022/11/05 12:49:02;;;;;;;4.45;2.55;;;11.20;99.90;;;;;;5153551;27;20104;-63
2022/11/05 12:51:50;;;;;;;6.97;2.72;;;11.10;99.90;;;;;;5153485;27;20091;-63
2022/11/05 12:54:57;;;;;;;4.40;2.58;;;11.10;99.90;;;;;;5153573;27;20117;-64
2022/11/05 12:57:23;;;;;;;4.65;2.70;;;11.10;99.90;;;;;;5139776;27;20142;-63
2022/11/05 13:00:29;;;;;;;3.67;2.60;;;11.00;99.90;;;;;;5153577;27;20049;-63
2022/11/05 13:03:01;;;;;;;4.15;2.42;;;11.00;99.90;;;;;;5148139;27;20108;-63
2022/11/05 13:05:55;;;;;;;4.97;2.50;;;11.00;99.90;;;;;;5153187;27;20046;-63
2022/11/05 13:08:28;;;;;;;4.15;2.85;;;11.00;99.90;;;;;;5152264;27;20065;-63
2022/11/05 13:11:02;;;;;;;4.20;2.45;;;11.00;99.90;;;;;;5153257;27;20047;-63
2022/11/05 13:13:39;;;;;;;4.53;2.40;;;11.10;99.90;;;;;;5134451;27;20074;-63
2022/11/05 13:16:20;;;;;;;5.75;2.85;;;11.10;99.90;;;;;;5132411;27;20051;-63
2022/11/05 13:18:51;;;;;;;5.30;2.55;;;11.10;99.90;;;;;;5114035;27;20104;-63
2022/11/05 13:21:22;;;;;;;5.20;2.35;;;11.10;99.90;;;;;;5132306;27;20441;-63
2022/11/05 13:24:12;;;;;;;4.22;2.60;;;11.20;99.90;;;;;;5131770;27;20050;-63
2022/11/05 13:26:45;;;;;;;6.38;2.63;;;11.20;99.90;;;;;;5131939;27;20104;-63
2022/11/05 13:29:24;;;;;;;5.30;2.95;;;11.20;99.90;;;;;;5131907;28;20495;-63
2022/11/05 13:32:00;;;;;;;3.90;2.38;;;11.20;99.90;;;;;;5132331;28;20129;-63
2022/11/05 13:34:26;;;;;;;3.95;2.50;;;11.20;99.90;;;;;;5132259;28;20046;-63
2022/11/05 13:39:48;;;;;;;5.82;3.65;;;11.20;99.90;;;;;;5132168;28;20129;-63
2022/11/05 13:42:26;;;;;;;5.28;2.92;;;11.20;99.90;;;;;;5132110;28;20120;-64
2022/11/05 13:45:13;;;;;;;4.70;2.90;;;11.20;99.90;;;;;;5131693;28;20500;-63
2022/11/05 13:48:06;;;;;;;5.40;3.33;;;11.20;99.90;;;;;;5132185;28;20043;-63
2022/11/05 13:50:43;;;;;;;5.47;2.83;;;11.20;99.90;;;;;;5131974;28;20051;-63
2022/11/05 13:53:24;;;;;;;4.95;3.05;;;11.10;99.90;;;;;;5132004;28;20047;-63
2022/11/05 13:55:54;;;;;;;5.38;2.95;;;11.20;99.90;;;;;;5113327;28;20126;-63